createdAt,value
2023-05-09T00:00:57.193Z,100.00
2023-05-09T00:03:25.944Z,100.00
2023-05-09T00:05:54.841Z,100.00
2023-05-09T00:08:23.771Z,100.00
2023-05-09T00:10:52.330Z,100.00
2023-05-09T00:13:21.143Z,100.00
2023-05-09T00:15:49.779Z,100.00
2023-05-09T00:18:20.144Z,100.00
2023-05-09T00:20:48.772Z,100.00
2023-05-09T00:23:18.093Z,100.00
2023-05-09T00:25:46.874Z,100.00
2023-05-09T00:28:16.125Z,100.00
2023-05-09T00:30:45.009Z,100.00
2023-05-09T00:33:13.651Z,100.00
2023-05-09T00:35:43.736Z,100.00
2023-05-09T00:38:12.505Z,100.00
2023-05-09T00:40:41.359Z,100.00
2023-05-09T00:43:11.029Z,100.00
2023-05-09T00:45:39.650Z,100.00
2023-05-09T00:48:08.471Z,100.00
2023-05-09T00:50:37.849Z,100.00
2023-05-09T00:53:08.863Z,100.00
2023-05-09T00:55:37.831Z,100.00
2023-05-09T00:58:06.585Z,100.00
2023-05-09T01:00:35.558Z,100.00
2023-05-09T01:03:05.088Z,100.00
2023-05-09T01:05:45.173Z,100.00
2023-05-09T01:08:23.174Z,100.00
2023-05-09T01:10:59.823Z,100.00
2023-05-09T01:13:33.459Z,100.00
2023-05-09T01:16:08.827Z,100.00
2023-05-09T01:18:46.229Z,100.00
2023-05-09T01:21:19.801Z,100.00
2023-05-09T01:24:09.635Z,100.00
2023-05-09T01:26:46.676Z,100.00
2023-05-09T01:29:38.058Z,100.00
2023-05-09T01:32:10.150Z,100.00
2023-05-09T01:34:41.763Z,100.00
2023-05-09T01:37:12.610Z,100.00
2023-05-09T01:39:43.558Z,100.00
2023-05-09T01:42:14.500Z,100.00
2023-05-09T01:44:46.454Z,100.00
2023-05-09T01:47:17.183Z,100.00
2023-05-09T01:49:47.750Z,100.00
2023-05-09T01:52:20.716Z,100.00
2023-05-09T01:54:51.835Z,100.00
2023-05-09T01:57:21.885Z,100.00
2023-05-09T01:59:53.533Z,100.00
2023-05-09T02:02:22.979Z,100.00
2023-05-09T02:04:52.200Z,100.00
2023-05-09T02:07:21.873Z,100.00
2023-05-09T02:09:54.058Z,100.00
2023-05-09T02:12:24.686Z,100.00
2023-05-09T02:14:54.721Z,100.00
2023-05-09T02:17:24.242Z,100.00
2023-05-09T02:19:53.197Z,100.00
2023-05-09T02:22:22.064Z,100.00
2023-05-09T02:24:51.105Z,100.00
2023-05-09T02:27:21.794Z,100.00
2023-05-09T02:29:57.903Z,100.00
2023-05-09T02:32:32.269Z,100.00
2023-05-09T02:35:04.122Z,100.00
2023-05-09T02:37:35.094Z,100.00
2023-05-09T02:40:05.649Z,100.00
2023-05-09T02:42:34.959Z,100.00
2023-05-09T02:45:03.836Z,100.00
2023-05-09T02:47:33.995Z,100.00
2023-05-09T02:50:02.647Z,100.00
2023-05-09T02:52:31.228Z,100.00
2023-05-09T02:55:00.566Z,100.00
2023-05-09T02:57:29.620Z,100.00
2023-05-09T02:59:59.082Z,100.00
2023-05-09T03:02:28.097Z,100.00
2023-05-09T03:04:58.776Z,100.00
2023-05-09T03:07:27.162Z,100.00
2023-05-09T03:09:55.657Z,100.00
2023-05-09T03:12:24.735Z,100.00
2023-05-09T03:14:56.125Z,100.00
2023-05-09T03:17:24.818Z,100.00
2023-05-09T03:19:53.449Z,100.00
2023-05-09T03:22:23.931Z,100.00
2023-05-09T03:25:00.368Z,100.00
2023-05-09T03:27:29.387Z,100.00
2023-05-09T03:29:58.214Z,100.00
2023-05-09T03:32:28.435Z,100.00
2023-05-09T03:34:57.394Z,100.00
2023-05-09T03:37:28.379Z,100.00
2023-05-09T03:39:57.313Z,100.00
2023-05-09T03:42:26.248Z,100.00
2023-05-09T03:45:01.352Z,100.00
2023-05-09T03:47:30.730Z,100.00
2023-05-09T03:50:00.019Z,100.00
2023-05-09T03:52:30.333Z,100.00
2023-05-09T03:54:59.195Z,100.00
2023-05-09T03:57:27.880Z,100.00
2023-05-09T03:59:58.520Z,100.00
2023-05-09T04:02:27.816Z,100.00
2023-05-09T04:04:56.760Z,100.00
2023-05-09T04:07:26.666Z,100.00
2023-05-09T04:09:57.160Z,100.00
2023-05-09T04:12:26.203Z,100.00
2023-05-09T04:14:55.251Z,100.00
2023-05-09T04:17:27.044Z,100.00
2023-05-09T04:19:57.674Z,100.00
2023-05-09T04:22:26.459Z,100.00
2023-05-09T04:24:57.370Z,100.00
2023-05-09T04:27:28.194Z,100.00
2023-05-09T04:29:57.978Z,100.00
2023-05-09T04:32:27.131Z,100.00
2023-05-09T04:34:56.383Z,100.00
2023-05-09T04:37:29.369Z,100.00
2023-05-09T04:40:01.433Z,100.00
2023-05-09T04:42:38.840Z,100.00
2023-05-09T04:45:09.601Z,100.00
2023-05-09T04:47:38.524Z,100.00
2023-05-09T04:50:08.190Z,100.00
2023-05-09T04:52:36.954Z,100.00
2023-05-09T04:55:08.678Z,100.00
2023-05-09T04:57:41.835Z,100.00
2023-05-09T05:00:12.752Z,100.00
2023-05-09T05:02:42.441Z,100.00
2023-05-09T05:05:12.742Z,100.00
2023-05-09T05:07:44.204Z,100.00
2023-05-09T05:10:18.670Z,100.00
2023-05-09T05:12:52.413Z,100.00
2023-05-09T05:15:21.011Z,100.00
2023-05-09T05:17:50.568Z,100.00
2023-05-09T05:20:22.883Z,100.00
2023-05-09T05:22:52.097Z,100.00
2023-05-09T05:25:22.470Z,100.00
2023-05-09T05:27:54.038Z,100.00
2023-05-09T05:30:23.065Z,100.00
2023-05-09T05:32:51.724Z,100.00
2023-05-09T05:35:23.476Z,100.00
2023-05-09T05:37:53.813Z,100.00
2023-05-09T05:40:27.670Z,99.83
2023-05-09T05:42:57.441Z,100.00
2023-05-09T05:45:33.756Z,99.25
2023-05-09T05:48:13.048Z,97.87
2023-05-09T05:50:45.344Z,96.51
2023-05-09T05:53:19.012Z,96.87
2023-05-09T05:55:54.297Z,95.12
2023-05-09T05:58:26.453Z,94.17
2023-05-09T06:00:56.638Z,99.16
2023-05-09T06:03:28.731Z,92.38
2023-05-09T06:06:01.707Z,90.78
2023-05-09T06:08:32.119Z,89.90
2023-05-09T06:11:02.500Z,89.03
2023-05-09T06:13:31.088Z,87.53
2023-05-09T06:16:18.540Z,87.45
2023-05-09T06:18:52.081Z,86.78
2023-05-09T06:21:23.570Z,86.41
2023-05-09T06:24:06.556Z,85.70
2023-05-09T06:26:40.672Z,85.38
2023-05-09T06:29:10.081Z,85.07
2023-05-09T06:31:40.964Z,84.38
2023-05-09T06:34:09.783Z,84.32
2023-05-09T06:36:38.605Z,83.34
2023-05-09T06:39:18.331Z,83.29
2023-05-09T06:41:48.909Z,80.88
2023-05-09T06:44:28.207Z,79.43
2023-05-09T06:46:57.313Z,79.27
2023-05-09T06:49:26.669Z,77.79
2023-05-09T06:51:55.664Z,76.05
2023-05-09T06:54:24.772Z,76.00
2023-05-09T06:56:55.370Z,73.71
2023-05-09T06:59:24.005Z,73.75
2023-05-09T07:01:53.203Z,71.80
2023-05-09T07:04:22.199Z,71.33
2023-05-09T07:06:53.535Z,69.82
2023-05-09T07:09:28.049Z,67.97
2023-05-09T07:11:58.486Z,67.71
2023-05-09T07:14:27.709Z,65.98
2023-05-09T07:17:18.116Z,65.58
2023-05-09T07:19:53.170Z,62.88
2023-05-09T07:22:22.246Z,63.27
2023-05-09T07:24:53.880Z,62.32
2023-05-09T07:27:24.378Z,61.25
2023-05-09T07:29:53.507Z,61.22
2023-05-09T07:32:22.427Z,61.14
2023-05-09T07:34:51.397Z,58.82
2023-05-09T07:37:20.542Z,59.56
2023-05-09T07:39:49.680Z,59.38
2023-05-09T07:42:19.118Z,58.62
2023-05-09T07:44:49.252Z,57.74
2023-05-09T07:47:18.248Z,56.21
2023-05-09T07:49:48.212Z,55.70
2023-05-09T07:52:17.582Z,54.19
2023-05-09T07:54:49.936Z,54.55
2023-05-09T07:57:19.133Z,52.44
2023-05-09T07:59:49.255Z,53.67
2023-05-09T08:02:20.757Z,52.62
2023-05-09T08:04:49.597Z,52.11
2023-05-09T08:07:18.588Z,51.70
2023-05-09T08:09:47.360Z,51.48
2023-05-09T08:12:16.170Z,49.60
2023-05-09T08:14:44.901Z,49.18
2023-05-09T08:17:15.418Z,48.42
2023-05-09T08:19:46.525Z,48.32
2023-05-09T08:22:19.382Z,46.19
2023-05-09T08:24:48.378Z,48.68
2023-05-09T08:27:17.381Z,47.92
2023-05-09T08:29:46.515Z,47.55
2023-05-09T08:32:17.076Z,47.03
2023-05-09T08:34:46.296Z,47.46
2023-05-09T08:37:15.691Z,45.65
2023-05-09T08:39:45.712Z,46.00
2023-05-09T08:42:20.214Z,45.75
2023-05-09T08:44:49.397Z,46.09
2023-05-09T08:47:21.292Z,45.24
2023-05-09T08:49:52.082Z,44.43
2023-05-09T08:52:21.527Z,45.38
2023-05-09T08:54:53.759Z,44.80
2023-05-09T08:57:23.019Z,43.73
2023-05-09T08:59:53.927Z,43.39
2023-05-09T09:02:25.000Z,44.37
2023-05-09T09:04:56.228Z,44.00
2023-05-09T09:07:31.036Z,42.55
2023-05-09T09:10:01.002Z,43.18
2023-05-09T09:12:35.167Z,42.80
2023-05-09T09:15:07.213Z,42.72
2023-05-09T09:17:44.242Z,41.03
2023-05-09T09:20:16.810Z,41.49
2023-05-09T09:22:49.451Z,41.17
2023-05-09T09:25:18.894Z,40.99
2023-05-09T09:27:47.576Z,40.60
2023-05-09T09:30:20.189Z,39.91
2023-05-09T09:32:50.745Z,39.35
2023-05-09T09:35:20.322Z,40.08
2023-05-09T09:37:54.041Z,39.31
2023-05-09T09:40:27.298Z,38.99
2023-05-09T09:42:57.190Z,39.52
2023-05-09T09:45:28.151Z,38.93
2023-05-09T09:47:58.686Z,38.16
2023-05-09T09:50:28.438Z,38.72
2023-05-09T09:53:01.044Z,38.36
2023-05-09T09:55:30.895Z,38.25
2023-05-09T09:58:01.004Z,37.67
2023-05-09T10:00:32.833Z,38.16
2023-05-09T10:03:03.354Z,38.17
2023-05-09T10:05:34.532Z,37.80
2023-05-09T10:08:07.738Z,38.37
2023-05-09T10:10:39.044Z,37.37
2023-05-09T10:13:10.580Z,37.43
2023-05-09T10:15:52.198Z,37.97
2023-05-09T10:18:31.210Z,35.69
2023-05-09T10:21:03.630Z,37.17
2023-05-09T10:23:38.522Z,36.60
2023-05-09T10:26:18.262Z,35.18
2023-05-09T10:28:50.525Z,36.71
2023-05-09T10:31:29.600Z,35.14
2023-05-09T10:34:06.979Z,33.30
2023-05-09T10:36:36.750Z,36.58
2023-05-09T10:39:06.699Z,36.73
2023-05-09T10:41:37.201Z,35.56
2023-05-09T10:44:07.088Z,36.31
2023-05-09T10:46:37.321Z,36.06
2023-05-09T10:49:14.693Z,35.50
2023-05-09T10:51:46.681Z,35.18
2023-05-09T10:54:16.919Z,35.46
2023-05-09T10:56:46.239Z,34.63
2023-05-09T10:59:37.200Z,33.65
2023-05-09T11:02:07.519Z,35.72
2023-05-09T11:04:40.752Z,36.06
2023-05-09T11:07:26.262Z,35.21
2023-05-09T11:10:12.885Z,33.20
2023-05-09T11:12:57.751Z,34.27
2023-05-09T11:15:28.225Z,36.87
2023-05-09T11:18:08.680Z,35.11
2023-05-09T11:20:44.667Z,35.73
2023-05-09T11:23:16.121Z,35.47
2023-05-09T11:25:48.658Z,34.97
2023-05-09T11:28:29.607Z,32.98
2023-05-09T11:31:12.905Z,32.64
2023-05-09T11:33:45.524Z,35.17
2023-05-09T11:36:20.956Z,33.10
2023-05-09T11:38:50.335Z,34.57
2023-05-09T11:41:20.211Z,34.80
2023-05-09T11:43:52.045Z,34.71
2023-05-09T11:46:21.158Z,34.21
2023-05-09T11:48:51.643Z,34.41
2023-05-09T11:51:22.325Z,34.40
2023-05-09T11:53:54.320Z,35.19
2023-05-09T11:56:24.323Z,34.82
2023-05-09T11:58:55.746Z,35.20
2023-05-09T12:01:25.021Z,34.98
2023-05-09T12:03:54.738Z,34.30
2023-05-09T12:06:26.481Z,33.08
2023-05-09T12:08:58.252Z,33.34
2023-05-09T12:11:27.555Z,33.85
2023-05-09T12:13:56.886Z,33.57
2023-05-09T12:16:26.826Z,33.30
2023-05-09T12:18:56.154Z,33.61
2023-05-09T12:21:26.965Z,33.31
2023-05-09T12:23:58.011Z,33.04
2023-05-09T12:26:29.314Z,33.07
2023-05-09T12:28:59.492Z,33.30
2023-05-09T12:31:29.640Z,32.40
2023-05-09T12:34:00.576Z,33.65
2023-05-09T12:36:41.888Z,32.21
2023-05-09T12:39:11.735Z,33.96
2023-05-09T12:41:57.407Z,31.88
2023-05-09T12:44:30.881Z,33.86
2023-05-09T12:47:02.398Z,33.32
2023-05-09T12:49:50.253Z,30.11
2023-05-09T12:52:21.947Z,34.26
2023-05-09T12:54:50.655Z,29.60
2023-05-09T12:57:24.681Z,33.68
2023-05-09T12:59:59.925Z,32.96
2023-05-09T13:02:29.636Z,34.17
2023-05-09T13:05:20.867Z,31.81
2023-05-09T13:07:56.240Z,33.11
2023-05-09T13:10:27.711Z,33.15
2023-05-09T13:12:57.513Z,33.68
2023-05-09T13:15:29.831Z,33.24
2023-05-09T13:18:08.599Z,32.71
2023-05-09T13:20:37.812Z,33.97
2023-05-09T13:23:08.231Z,34.27
2023-05-09T13:25:37.208Z,33.89
2023-05-09T13:28:06.491Z,33.43
2023-05-09T13:30:35.981Z,33.52
2023-05-09T13:33:16.550Z,33.81
2023-05-09T13:35:53.814Z,33.80
2023-05-09T13:38:41.928Z,33.15
2023-05-09T13:41:11.896Z,33.39
2023-05-09T13:43:42.831Z,34.10
2023-05-09T13:46:12.254Z,33.90
2023-05-09T13:48:51.014Z,32.60
2023-05-09T13:51:21.494Z,33.31
2023-05-09T13:53:52.201Z,33.99
2023-05-09T13:56:22.732Z,34.39
2023-05-09T13:58:56.921Z,34.46
2023-05-09T14:01:26.121Z,34.23
2023-05-09T14:03:54.981Z,34.64
2023-05-09T14:06:24.469Z,34.46
2023-05-09T14:08:54.784Z,34.70
2023-05-09T14:11:25.572Z,34.49
2023-05-09T14:13:57.552Z,33.67
2023-05-09T14:16:28.994Z,34.25
2023-05-09T14:18:58.604Z,34.22
2023-05-09T14:21:29.869Z,34.65
2023-05-09T14:24:01.366Z,34.20
2023-05-09T14:26:30.801Z,34.60
2023-05-09T14:29:00.067Z,34.87
2023-05-09T14:31:29.344Z,34.70
2023-05-09T14:34:00.638Z,34.68
2023-05-09T14:36:33.810Z,34.51
2023-05-09T14:39:06.780Z,34.56
2023-05-09T14:41:36.140Z,34.74
2023-05-09T14:44:05.203Z,35.25
2023-05-09T14:46:37.307Z,34.89
2023-05-09T14:49:06.450Z,35.68
2023-05-09T14:51:36.497Z,35.63
2023-05-09T14:54:07.101Z,35.21
2023-05-09T14:56:36.197Z,35.92
2023-05-09T14:59:05.065Z,35.60
2023-05-09T15:01:37.917Z,35.46
2023-05-09T15:04:07.219Z,35.79
2023-05-09T15:06:36.492Z,35.30
2023-05-09T15:09:07.989Z,35.51
2023-05-09T15:11:47.899Z,35.71
2023-05-09T15:14:17.856Z,35.26
2023-05-09T15:16:51.895Z,35.31
2023-05-09T15:19:24.369Z,35.83
2023-05-09T15:21:54.657Z,35.68
2023-05-09T15:24:26.922Z,36.03
2023-05-09T15:26:56.263Z,36.42
2023-05-09T15:29:25.176Z,36.21
2023-05-09T15:31:55.558Z,36.62
2023-05-09T15:34:26.117Z,36.78
2023-05-09T15:36:55.199Z,36.83
2023-05-09T15:39:27.448Z,36.65
2023-05-09T15:41:56.482Z,37.18
2023-05-09T15:44:27.761Z,36.57
2023-05-09T15:46:58.676Z,36.66
2023-05-09T15:49:27.646Z,36.61
2023-05-09T15:51:56.392Z,37.38
2023-05-09T15:54:27.195Z,36.64
2023-05-09T15:56:56.431Z,37.13
2023-05-09T15:59:25.783Z,37.29
2023-05-09T16:01:54.918Z,37.00
2023-05-09T16:04:24.563Z,36.66
2023-05-09T16:06:58.544Z,37.16
2023-05-09T16:09:28.819Z,37.08
2023-05-09T16:11:57.748Z,37.22
2023-05-09T16:14:27.021Z,37.08
2023-05-09T16:16:56.613Z,37.13
2023-05-09T16:19:27.545Z,37.32
2023-05-09T16:21:56.810Z,37.59
2023-05-09T16:24:25.647Z,37.83
2023-05-09T16:26:55.954Z,38.33
2023-05-09T16:29:25.615Z,38.19
2023-05-09T16:31:54.368Z,39.05
2023-05-09T16:34:23.132Z,39.08
2023-05-09T16:36:52.606Z,38.74
2023-05-09T16:39:22.734Z,38.91
2023-05-09T16:41:51.632Z,39.45
2023-05-09T16:44:22.695Z,39.26
2023-05-09T16:46:51.801Z,40.00
2023-05-09T16:49:21.035Z,39.46
2023-05-09T16:51:50.408Z,40.41
2023-05-09T16:54:20.681Z,40.66
2023-05-09T16:56:49.820Z,40.72
2023-05-09T16:59:20.313Z,40.57
2023-05-09T17:01:53.849Z,40.28
2023-05-09T17:04:24.952Z,40.32
2023-05-09T17:06:54.302Z,40.61
2023-05-09T17:09:23.603Z,40.89
2023-05-09T17:11:52.400Z,40.98
2023-05-09T17:14:21.507Z,41.50
2023-05-09T17:16:55.481Z,41.74
2023-05-09T17:19:24.151Z,41.59
2023-05-09T17:21:56.110Z,41.68
2023-05-09T17:24:25.258Z,41.98
2023-05-09T17:26:57.125Z,42.01
2023-05-09T17:29:31.693Z,42.02
2023-05-09T17:32:02.486Z,42.05
2023-05-09T17:34:32.398Z,42.15
2023-05-09T17:37:02.545Z,42.14
2023-05-09T17:39:31.449Z,42.36
2023-05-09T17:42:00.518Z,42.81
2023-05-09T17:44:30.566Z,42.94
2023-05-09T17:46:59.746Z,43.20
2023-05-09T17:49:30.070Z,43.27
2023-05-09T17:51:59.977Z,43.51
2023-05-09T17:54:28.872Z,43.76
2023-05-09T17:57:01.518Z,44.20
2023-05-09T17:59:30.887Z,44.10
2023-05-09T18:02:00.413Z,44.60
2023-05-09T18:04:32.873Z,44.77
2023-05-09T18:07:02.802Z,44.97
2023-05-09T18:09:32.371Z,44.97
2023-05-09T18:12:00.919Z,45.31
2023-05-09T18:14:29.860Z,45.36
2023-05-09T18:16:58.898Z,45.54
2023-05-09T18:19:27.587Z,46.05
2023-05-09T18:21:57.880Z,46.64
2023-05-09T18:24:28.200Z,46.88
2023-05-09T18:26:57.366Z,47.25
2023-05-09T18:29:26.106Z,48.50
2023-05-09T18:31:56.220Z,48.72
2023-05-09T18:34:25.060Z,49.70
2023-05-09T18:36:54.034Z,50.03
2023-05-09T18:39:26.002Z,50.21
2023-05-09T18:41:54.933Z,50.74
2023-05-09T18:44:23.734Z,51.17
2023-05-09T18:46:54.124Z,51.53
2023-05-09T18:49:26.067Z,52.36
2023-05-09T18:51:56.585Z,52.83
2023-05-09T18:54:29.926Z,53.08
2023-05-09T18:57:01.828Z,52.13
2023-05-09T18:59:31.992Z,51.70
2023-05-09T19:02:01.528Z,52.10
2023-05-09T19:04:30.681Z,52.59
2023-05-09T19:07:00.280Z,53.85
2023-05-09T19:09:30.848Z,54.55
2023-05-09T19:12:04.567Z,54.66
2023-05-09T19:14:34.810Z,55.37
2023-05-09T19:17:05.010Z,55.76
2023-05-09T19:19:34.789Z,56.44
2023-05-09T19:22:04.499Z,56.67
2023-05-09T19:24:34.635Z,56.93
2023-05-09T19:27:05.495Z,57.05
2023-05-09T19:29:34.654Z,57.22
2023-05-09T19:32:03.970Z,57.37
2023-05-09T19:34:32.869Z,58.67
2023-05-09T19:37:01.669Z,58.88
2023-05-09T19:39:30.722Z,58.26
2023-05-09T19:42:01.980Z,58.98
2023-05-09T19:44:31.764Z,58.33
2023-05-09T19:47:02.301Z,59.38
2023-05-09T19:49:31.415Z,59.05
2023-05-09T19:52:00.348Z,59.30
2023-05-09T19:54:28.858Z,58.98
2023-05-09T19:56:57.783Z,57.86
2023-05-09T19:59:28.272Z,58.08
2023-05-09T20:01:57.509Z,58.12
2023-05-09T20:04:26.453Z,58.32
2023-05-09T20:06:55.219Z,59.14
2023-05-09T20:09:24.455Z,58.74
2023-05-09T20:11:53.394Z,58.44
2023-05-09T20:14:22.420Z,58.61
2023-05-09T20:16:55.094Z,58.84
2023-05-09T20:19:23.661Z,58.09
2023-05-09T20:21:52.309Z,58.30
2023-05-09T20:24:26.668Z,58.77
2023-05-09T20:26:55.886Z,57.94
2023-05-09T20:29:26.293Z,58.54
2023-05-09T20:31:56.984Z,58.37
2023-05-09T20:34:27.386Z,57.03
2023-05-09T20:36:58.717Z,57.21
2023-05-09T20:39:27.658Z,56.87
2023-05-09T20:41:58.786Z,57.14
2023-05-09T20:44:27.505Z,57.50
2023-05-09T20:46:57.657Z,57.92
2023-05-09T20:49:27.391Z,58.34
2023-05-09T20:51:56.562Z,59.09
2023-05-09T20:54:25.253Z,60.36
2023-05-09T20:56:53.756Z,60.61
2023-05-09T20:59:23.492Z,60.74
2023-05-09T21:01:55.689Z,61.56
2023-05-09T21:04:26.268Z,61.18
2023-05-09T21:06:55.230Z,60.66
2023-05-09T21:09:24.300Z,60.74
2023-05-09T21:11:52.890Z,60.90
2023-05-09T21:14:21.986Z,60.00
2023-05-09T21:16:55.499Z,60.34
2023-05-09T21:19:25.858Z,59.94
2023-05-09T21:21:55.723Z,60.39
2023-05-09T21:24:24.620Z,61.88
2023-05-09T21:26:53.512Z,63.00
2023-05-09T21:29:22.757Z,63.22
2023-05-09T21:31:51.559Z,63.94
2023-05-09T21:34:20.627Z,63.18
2023-05-09T21:36:50.905Z,64.30
2023-05-09T21:39:20.516Z,63.70
2023-05-09T21:41:49.435Z,63.42
2023-05-09T21:44:18.518Z,63.24
2023-05-09T21:46:47.480Z,63.60
2023-05-09T21:49:18.544Z,64.36
2023-05-09T21:51:47.132Z,64.86
2023-05-09T21:54:17.490Z,65.08
2023-05-09T21:56:46.606Z,66.46
2023-05-09T21:59:15.389Z,66.68
2023-05-09T22:01:46.005Z,67.56
2023-05-09T22:04:15.008Z,68.21
2023-05-09T22:06:46.532Z,68.97
2023-05-09T22:09:17.157Z,70.23
2023-05-09T22:11:48.832Z,69.88
2023-05-09T22:14:18.862Z,71.16
2023-05-09T22:16:50.149Z,76.09
2023-05-09T22:19:18.753Z,70.99
2023-05-09T22:21:49.132Z,71.59
2023-05-09T22:24:19.734Z,71.33
2023-05-09T22:26:48.660Z,71.43
2023-05-09T22:29:17.872Z,70.69
2023-05-09T22:31:46.740Z,70.70
2023-05-09T22:34:15.845Z,70.04
2023-05-09T22:36:47.120Z,69.99
2023-05-09T22:39:16.791Z,69.80
2023-05-09T22:41:51.274Z,69.70
2023-05-09T22:44:20.316Z,69.03
2023-05-09T22:46:49.031Z,68.21
2023-05-09T22:49:18.526Z,67.67
2023-05-09T22:51:47.037Z,67.65
2023-05-09T22:54:20.619Z,67.24
2023-05-09T22:56:50.832Z,67.07
2023-05-09T22:59:20.551Z,66.94
2023-05-09T23:01:49.775Z,67.15
2023-05-09T23:04:19.497Z,65.70
2023-05-09T23:06:48.287Z,66.42
2023-05-09T23:09:17.016Z,65.70
2023-05-09T23:11:46.386Z,65.05
2023-05-09T23:14:16.697Z,65.92
2023-05-09T23:16:47.041Z,67.30
2023-05-09T23:19:16.294Z,67.26
2023-05-09T23:21:45.056Z,68.16
2023-05-09T23:24:15.500Z,68.28
2023-05-09T23:26:44.302Z,69.04
2023-05-09T23:29:13.403Z,69.09
2023-05-09T23:31:44.639Z,69.07
2023-05-09T23:34:13.589Z,69.02
2023-05-09T23:36:42.520Z,69.51
2023-05-09T23:39:11.398Z,70.25
2023-05-09T23:41:41.371Z,71.33
2023-05-09T23:44:10.216Z,70.84
2023-05-09T23:46:39.261Z,70.78
2023-05-09T23:49:09.530Z,70.38
2023-05-09T23:51:38.236Z,71.08
2023-05-09T23:54:07.486Z,71.28
2023-05-09T23:56:36.201Z,71.08
2023-05-09T23:59:05.478Z,71.18
